Portland, Oregon
Traffic Map
Current Weather Conditions
Portland, Oregon
Few Clouds
Few Clouds
31°
Feels Like: 31°
Wind Chill: 31° Ceiling: Unl
Heat Index: 31° Visibility: 10mi
Dew Point: 28° Wind: 0mph
Humidity: 89% Direction: ° ()
Pressure: 30.38in Gusts: 0mph
Raw Report DataKPDX 071653Z 00000KT 10SM FEW005 FEW250 M01/M02 A3038 RMK AO2 SLP286 T10061022
Traffic Incident Summary
Active as of:
Severity:
Category:
InformationThere was an issue retrieving the traffic information for this location. Please try a different location or try again shortly.
Advertisements
Track Severe Weather on mobile